Time;durP1;ratioP1;P1;durP2;ratioP2;P2;SDS_P1;SDS_P2;PMS_P1;PMS_P2;Temp;Humidity;BMP_temperature;BMP_pressure;BME280_temperature;BME280_humidity;BME280_pressure;Samples;Min_cycle;Max_cycle;Signal;HPM_P1;HPM_P2
2022/12/26 00:01:17;;;;;;;103.38;23.83;;;;;;;;;;5101952;28;20058;-74
2022/12/26 00:03:43;;;;;;;77.35;22.98;;;;;;;;;;5108279;28;20076;-74
2022/12/26 00:06:18;;;;;;;119.10;24.92;;;;;;;;;;5092095;28;20035;-76
2022/12/26 00:08:44;;;;;;;91.03;22.58;;;;;;;;;;5100882;28;20053;-74
2022/12/26 00:11:11;;;;;;;75.38;22.50;;;;;;;;;;5104935;28;20015;-75
2022/12/26 00:13:39;;;;;;;84.75;23.63;;;;;;;;;;5110700;28;20105;-73
2022/12/26 00:16:08;;;;;;;73.13;20.85;;;;;;;;;;5085137;28;20036;-73
2022/12/26 00:18:34;;;;;;;73.47;22.55;;;;;;;;;;5112760;28;20092;-73
2022/12/26 00:21:00;;;;;;;76.78;22.88;;;;;;;;;;5106670;28;20142;-73
2022/12/26 00:23:26;;;;;;;85.88;23.23;;;;;;;;;;5094125;28;20535;-73
2022/12/26 00:25:52;;;;;;;70.35;21.30;;;;;;;;;;5106122;28;20152;-73
2022/12/26 00:28:18;;;;;;;74.63;21.60;;;;;;;;;;5092639;28;20154;-72
2022/12/26 00:30:44;;;;;;;71.03;20.92;;;;;;;;;;5107195;28;20117;-73
2022/12/26 00:33:10;;;;;;;67.65;21.08;;;;;;;;;;5109219;28;20027;-74
2022/12/26 00:35:36;;;;;;;70.90;21.05;;;;;;;;;;5108590;28;20027;-73
2022/12/26 00:38:02;;;;;;;76.05;21.40;;;;;;;;;;5111821;28;20070;-73
2022/12/26 00:40:29;;;;;;;77.07;22.02;;;;;;;;;;5091595;28;20049;-75
2022/12/26 00:42:55;;;;;;;76.13;21.30;;;;;;;;;;5095214;28;20475;-74
2022/12/26 00:45:21;;;;;;;76.35;23.83;;;;;;;;;;5097592;28;20024;-73
2022/12/26 00:47:47;;;;;;;75.80;23.10;;;;;;;;;;5110393;28;20088;-73
2022/12/26 00:50:13;;;;;;;93.40;24.45;;;;;;;;;;5085890;28;20095;-73
2022/12/26 00:52:39;;;;;;;90.88;22.63;;;;;;;;;;5092190;28;20073;-73
2022/12/26 00:55:05;;;;;;;82.50;23.27;;;;;;;;;;5104773;28;20024;-74
2022/12/26 00:57:31;;;;;;;94.43;23.30;;;;;;;;;;5096751;28;20105;-73
2022/12/26 00:59:57;;;;;;;91.40;24.08;;;;;;;;;;5107291;28;20031;-74
2022/12/26 01:02:38;;;;;;;88.53;23.00;;;;;;;;;;5107760;28;20375;-73
2022/12/26 01:05:05;;;;;;;93.88;24.23;;;;;;;;;;5109510;28;20027;-75
2022/12/26 01:07:35;;;;;;;75.68;22.77;;;;;;;;;;5105210;28;20381;-74
2022/12/26 01:10:01;;;;;;;103.28;25.83;;;;;;;;;;5108053;28;20136;-73
2022/12/26 01:12:27;;;;;;;97.63;24.52;;;;;;;;;;5108275;28;20542;-74
2022/12/26 01:15:00;;;;;;;95.70;23.63;;;;;;;;;;5109515;28;20387;-72
2022/12/26 01:17:27;;;;;;;105.28;25.85;;;;;;;;;;5110207;28;20058;-73
2022/12/26 01:19:53;;;;;;;99.68;23.65;;;;;;;;;;5104501;28;20032;-73
2022/12/26 01:22:19;;;;;;;96.78;23.38;;;;;;;;;;5099380;28;20035;-73
2022/12/26 01:24:45;;;;;;;110.57;25.67;;;;;;;;;;5092631;28;20032;-73
2022/12/26 01:27:11;;;;;;;107.70;23.48;;;;;;;;;;5102642;28;20083;-73
2022/12/26 01:29:37;;;;;;;92.05;22.90;;;;;;;;;;5110463;28;20050;-73
2022/12/26 01:32:03;;;;;;;85.85;23.17;;;;;;;;;;5108024;28;20412;-74
2022/12/26 01:34:29;;;;;;;91.40;22.70;;;;;;;;;;5111285;28;20028;-73
2022/12/26 01:36:55;;;;;;;95.85;21.17;;;;;;;;;;5107166;28;20058;-74
2022/12/26 01:39:21;;;;;;;93.10;22.08;;;;;;;;;;5108602;28;20483;-73
2022/12/26 01:41:48;;;;;;;88.78;20.92;;;;;;;;;;5094482;28;20430;-73
2022/12/26 01:44:32;;;;;;;86.50;20.13;;;;;;;;;;5110222;28;20036;-72
2022/12/26 01:46:58;;;;;;;82.28;21.65;;;;;;;;;;5107422;28;20689;-72
2022/12/26 01:49:31;;;;;;;70.10;18.88;;;;;;;;;;5110071;28;20069;-73
2022/12/26 01:51:59;;;;;;;70.15;18.95;;;;;;;;;;5099967;28;20028;-75
2022/12/26 01:54:27;;;;;;;64.68;18.13;;;;;;;;;;5108867;28;20028;-73
2022/12/26 01:56:53;;;;;;;64.32;18.63;;;;;;;;;;5090485;28;20023;-73
2022/12/26 01:59:21;;;;;;;63.58;17.77;;;;;;;;;;5110158;28;20024;-73
2022/12/26 02:01:48;;;;;;;50.53;16.05;;;;;;;;;;5104822;28;20023;-73
2022/12/26 02:07:02;;;;;;;46.70;15.00;;;;;;;;;;5096631;28;20085;-73
2022/12/26 02:09:28;;;;;;;47.88;16.33;;;;;;;;;;5087555;28;20036;-73
2022/12/26 02:11:58;;;;;;;42.45;15.43;;;;;;;;;;5103313;28;20039;-73
2022/12/26 02:14:24;;;;;;;41.88;15.07;;;;;;;;;;5091643;28;20020;-73
2022/12/26 02:16:51;;;;;;;43.45;16.17;;;;;;;;;;5109647;28;20039;-73
2022/12/26 02:19:28;;;;;;;36.95;15.38;;;;;;;;;;5099283;28;20087;-73
2022/12/26 02:21:54;;;;;;;39.95;18.00;;;;;;;;;;5108513;28;20036;-73
2022/12/26 02:24:23;;;;;;;38.53;16.70;;;;;;;;;;5102050;28;20214;-74
2022/12/26 02:27:08;;;;;;;42.83;18.58;;;;;;;;;;5112330;28;20528;-73
2022/12/26 02:29:53;;;;;;;47.63;17.98;;;;;;;;;;5110693;28;20105;-73
2022/12/26 02:32:28;;;;;;;54.10;21.48;;;;;;;;;;5105712;28;20398;-74
2022/12/26 02:35:00;;;;;;;51.58;20.95;;;;;;;;;;5097946;28;20367;-72
2022/12/26 02:37:50;;;;;;;55.78;23.27;;;;;;;;;;5091847;28;20474;-73
2022/12/26 02:40:41;;;;;;;60.20;24.58;;;;;;;;;;5066604;28;20471;-73
2022/12/26 02:43:10;;;;;;;63.63;26.00;;;;;;;;;;5112094;28;20436;-73
2022/12/26 02:48:40;;;;;;;61.50;26.55;;;;;;;;;;5106793;28;20101;-73
2022/12/26 03:13:09;;;;;;;70.13;27.05;;;;;;;;;;5107980;28;20395;-73
2022/12/26 03:14:23;;;;;;;59.42;26.13;;;;;;;;;;5102728;28;20212;-73
2022/12/26 03:19:56;;;;;;;69.93;27.17;;;;;;;;;;5110072;28;20165;-73
2022/12/26 03:22:29;;;;;;;64.43;26.83;;;;;;;;;;5105843;28;20448;-73
2022/12/26 03:27:39;;;;;;;67.68;27.80;;;;;;;;;;5111461;28;19952;-73
2022/12/26 03:32:52;;;;;;;71.30;27.60;;;;;;;;;;5110669;28;20054;-74
2022/12/26 03:35:19;;;;;;;65.85;29.20;;;;;;;;;;5104644;28;20046;-73
2022/12/26 03:37:49;;;;;;;66.55;28.77;;;;;;;;;;5086797;28;20458;-74
2022/12/26 04:20:01;;;;;;;58.22;28.52;;;;;;;;;;5102955;28;20111;-72
2022/12/26 04:45:13;;;;;;;46.90;25.58;;;;;;;;;;5108334;28;20048;-75
2022/12/26 04:50:10;;;;;;;45.90;25.77;;;;;;;;;;5099300;28;20506;-72
2022/12/26 04:50:25;;;;;;;41.35;25.50;;;;;;;;;;5107522;28;20487;-73
2022/12/26 04:52:57;;;;;;;45.15;24.70;;;;;;;;;;5095301;28;20071;-73
2022/12/26 04:55:24;;;;;;;47.55;25.20;;;;;;;;;;5110369;28;20547;-73
2022/12/26 04:57:50;;;;;;;42.70;23.50;;;;;;;;;;5109750;28;20032;-73
2022/12/26 05:00:16;;;;;;;40.92;23.73;;;;;;;;;;5103650;28;20076;-74
2022/12/26 05:11:51;;;;;;;41.60;22.27;;;;;;;;;;4987552;28;20038;-72
2022/12/26 05:14:17;;;;;;;37.53;23.30;;;;;;;;;;5028335;28;20087;-73
2022/12/26 05:30:27;;;;;;;35.40;23.13;;;;;;;;;;5087078;28;20032;-72
2022/12/26 05:35:39;;;;;;;39.15;23.33;;;;;;;;;;5089054;28;20075;-72
2022/12/26 05:38:05;;;;;;;38.78;24.40;;;;;;;;;;5084825;28;20036;-73
2022/12/26 05:40:31;;;;;;;40.97;23.90;;;;;;;;;;5090704;28;20040;-72
2022/12/26 05:42:57;;;;;;;37.83;24.77;;;;;;;;;;5070219;28;20043;-73
2022/12/26 05:45:23;;;;;;;38.88;25.65;;;;;;;;;;5064903;28;20032;-72
2022/12/26 05:47:49;;;;;;;39.50;25.13;;;;;;;;;;5088555;28;20024;-72
2022/12/26 05:50:15;;;;;;;41.38;26.35;;;;;;;;;;5090310;28;20032;-73
2022/12/26 05:52:41;;;;;;;38.08;23.92;;;;;;;;;;5092322;28;20036;-73
2022/12/26 05:55:07;;;;;;;46.33;24.58;;;;;;;;;;5075551;28;20529;-72
2022/12/26 05:57:33;;;;;;;36.08;23.77;;;;;;;;;;5073383;28;20077;-73
2022/12/26 05:59:59;;;;;;;34.85;23.30;;;;;;;;;;5075937;28;20164;-73
2022/12/26 06:02:25;;;;;;;35.88;23.73;;;;;;;;;;5089466;28;20074;-72
2022/12/26 06:04:51;;;;;;;30.38;20.65;;;;;;;;;;5084848;28;20067;-71
2022/12/26 06:07:17;;;;;;;32.70;21.67;;;;;;;;;;5091367;28;20061;-73
2022/12/26 06:09:43;;;;;;;27.73;21.13;;;;;;;;;;5093739;28;20028;-72
2022/12/26 06:12:09;;;;;;;29.52;19.55;;;;;;;;;;5085773;28;20037;-72
2022/12/26 06:14:35;;;;;;;28.95;20.48;;;;;;;;;;5063593;28;20033;-72
2022/12/26 06:17:01;;;;;;;30.90;19.48;;;;;;;;;;5084976;28;21254;-72
2022/12/26 06:19:27;;;;;;;26.52;18.98;;;;;;;;;;5089132;28;20556;-71
2022/12/26 06:21:53;;;;;;;31.50;18.02;;;;;;;;;;5105477;28;20039;-73
2022/12/26 06:24:19;;;;;;;27.20;17.73;;;;;;;;;;5108392;28;20056;-72
2022/12/26 06:26:45;;;;;;;26.08;18.80;;;;;;;;;;5104230;28;20099;-71
2022/12/26 06:29:12;;;;;;;30.73;19.33;;;;;;;;;;5105539;28;20016;-73
2022/12/26 06:31:38;;;;;;;31.25;19.63;;;;;;;;;;5090780;28;20031;-72
2022/12/26 06:34:04;;;;;;;25.08;16.48;;;;;;;;;;5114304;28;20101;-72
2022/12/26 06:36:30;;;;;;;23.67;17.17;;;;;;;;;;5111220;28;20072;-72
2022/12/26 06:38:57;;;;;;;22.15;16.40;;;;;;;;;;5109296;28;20448;-72
2022/12/26 06:41:23;;;;;;;23.98;15.77;;;;;;;;;;5112004;28;20493;-72
2022/12/26 06:43:49;;;;;;;23.85;15.85;;;;;;;;;;5113296;28;20617;-73
2022/12/26 06:46:17;;;;;;;19.13;14.23;;;;;;;;;;5113480;28;20050;-72
2022/12/26 06:48:43;;;;;;;23.25;14.82;;;;;;;;;;5105570;28;20031;-74
2022/12/26 06:51:13;;;;;;;18.40;12.48;;;;;;;;;;5111916;28;20036;-71
2022/12/26 06:53:40;;;;;;;18.35;13.52;;;;;;;;;;5108918;28;20034;-72
2022/12/26 06:56:13;;;;;;;18.15;12.10;;;;;;;;;;5108159;28;20080;-72
2022/12/26 06:58:40;;;;;;;22.60;12.82;;;;;;;;;;5109635;28;20110;-71
2022/12/26 07:01:15;;;;;;;17.70;12.13;;;;;;;;;;5108310;28;20066;-72
2022/12/26 07:03:42;;;;;;;17.70;11.25;;;;;;;;;;5082434;28;20047;-72
2022/12/26 07:06:12;;;;;;;17.55;10.10;;;;;;;;;;5096703;28;20365;-73
2022/12/26 07:08:38;;;;;;;20.48;10.50;;;;;;;;;;5106940;28;20023;-73
2022/12/26 07:11:04;;;;;;;14.48;8.93;;;;;;;;;;5107501;28;20317;-73
2022/12/26 07:13:30;;;;;;;16.90;9.27;;;;;;;;;;5109469;28;20020;-72
2022/12/26 07:15:59;;;;;;;18.17;9.40;;;;;;;;;;5094354;28;20027;-72
2022/12/26 07:18:25;;;;;;;19.92;8.95;;;;;;;;;;5102450;28;20054;-72
2022/12/26 07:20:51;;;;;;;25.60;14.35;;;;;;;;;;5111240;28;20384;-73
2022/12/26 07:23:17;;;;;;;20.63;8.90;;;;;;;;;;5101883;28;20028;-73
2022/12/26 07:25:46;;;;;;;19.83;8.40;;;;;;;;;;5111095;28;20023;-72
2022/12/26 07:28:12;;;;;;;15.95;9.07;;;;;;;;;;5110539;28;20385;-72
2022/12/26 07:30:38;;;;;;;13.23;8.48;;;;;;;;;;5106414;28;20040;-72
2022/12/26 07:33:04;;;;;;;17.45;7.90;;;;;;;;;;5111830;28;20034;-72
2022/12/26 07:35:30;;;;;;;13.02;7.93;;;;;;;;;;5109226;27;20088;-72
2022/12/26 07:37:56;;;;;;;20.67;8.60;;;;;;;;;;5110320;28;20035;-72
2022/12/26 07:40:23;;;;;;;13.50;8.18;;;;;;;;;;5110158;28;20546;-73
2022/12/26 07:42:52;;;;;;;13.65;8.00;;;;;;;;;;5088403;28;20490;-72
2022/12/26 07:45:18;;;;;;;13.82;8.05;;;;;;;;;;5109352;28;20122;-71
2022/12/26 07:47:44;;;;;;;15.57;8.73;;;;;;;;;;5090132;28;20078;-72
2022/12/26 07:50:10;;;;;;;19.55;10.70;;;;;;;;;;5097302;28;20035;-71
2022/12/26 07:52:36;;;;;;;17.55;8.07;;;;;;;;;;5101883;28;20476;-71
2022/12/26 07:55:03;;;;;;;17.20;8.35;;;;;;;;;;5112107;28;20039;-71
2022/12/26 07:57:29;;;;;;;15.77;7.55;;;;;;;;;;5109091;28;20035;-71
2022/12/26 07:59:55;;;;;;;13.20;7.38;;;;;;;;;;5107375;28;20066;-71
2022/12/26 08:02:21;;;;;;;14.40;6.95;;;;;;;;;;5090733;28;20099;-71
2022/12/26 08:04:47;;;;;;;11.70;6.00;;;;;;;;;;5090602;28;20035;-71
2022/12/26 08:07:13;;;;;;;16.55;6.90;;;;;;;;;;5108749;28;20036;-74
2022/12/26 08:09:41;;;;;;;14.43;6.65;;;;;;;;;;5109345;28;20028;-73
2022/12/26 08:12:08;;;;;;;15.30;6.60;;;;;;;;;;5104139;28;20076;-72
2022/12/26 08:14:36;;;;;;;10.68;5.85;;;;;;;;;;5110251;28;20031;-72
2022/12/26 08:17:02;;;;;;;11.23;5.93;;;;;;;;;;5100902;28;20089;-74
2022/12/26 08:19:32;;;;;;;13.80;5.68;;;;;;;;;;5092623;28;20055;-71
2022/12/26 08:21:58;;;;;;;10.05;5.85;;;;;;;;;;5109509;28;20473;-72
2022/12/26 08:24:24;;;;;;;9.07;5.47;;;;;;;;;;5080968;28;20030;-72
2022/12/26 08:26:50;;;;;;;16.95;6.43;;;;;;;;;;5110871;28;20388;-74
2022/12/26 08:29:16;;;;;;;11.40;5.88;;;;;;;;;;5109637;28;20034;-71
2022/12/26 08:31:42;;;;;;;10.73;6.32;;;;;;;;;;5110247;28;20032;-73
2022/12/26 08:34:08;;;;;;;12.45;6.30;;;;;;;;;;5105683;28;20545;-72
2022/12/26 08:36:35;;;;;;;10.63;6.07;;;;;;;;;;5112006;28;20463;-72
2022/12/26 08:39:01;;;;;;;12.88;6.00;;;;;;;;;;5107951;28;20047;-72
2022/12/26 08:41:27;;;;;;;11.80;5.97;;;;;;;;;;5109982;28;20188;-71
2022/12/26 08:43:53;;;;;;;16.88;5.80;;;;;;;;;;5109378;28;20394;-71
2022/12/26 08:46:19;;;;;;;11.73;6.68;;;;;;;;;;5110868;28;20046;-73
2022/12/26 08:48:46;;;;;;;18.73;7.18;;;;;;;;;;5078465;28;20035;-73
2022/12/26 08:51:14;;;;;;;12.90;6.57;;;;;;;;;;5080359;28;20130;-72
2022/12/26 08:53:40;;;;;;;15.45;7.18;;;;;;;;;;5109555;28;20035;-72
2022/12/26 08:56:07;;;;;;;18.83;6.38;;;;;;;;;;5111720;28;20118;-72
2022/12/26 08:58:34;;;;;;;18.00;7.50;;;;;;;;;;5108356;28;20434;-72
2022/12/26 09:01:13;;;;;;;15.85;6.65;;;;;;;;;;5098446;28;20031;-74
2022/12/26 09:03:40;;;;;;;15.52;7.35;;;;;;;;;;5093024;28;20039;-73
2022/12/26 09:06:06;;;;;;;14.77;6.25;;;;;;;;;;5099861;28;20440;-72
2022/12/26 09:08:33;;;;;;;13.57;6.55;;;;;;;;;;5101552;28;20028;-72
2022/12/26 09:11:04;;;;;;;16.48;6.35;;;;;;;;;;5111686;28;20488;-74
2022/12/26 09:13:30;;;;;;;15.20;6.63;;;;;;;;;;5102649;28;20078;-72
2022/12/26 09:16:02;;;;;;;17.88;6.43;;;;;;;;;;5109812;28;20523;-72
2022/12/26 09:18:30;;;;;;;13.52;6.20;;;;;;;;;;5108364;28;20051;-72
2022/12/26 09:20:59;;;;;;;17.83;6.05;;;;;;;;;;5075947;28;20028;-72
2022/12/26 09:23:25;;;;;;;13.70;5.70;;;;;;;;;;5084850;28;20035;-72
2022/12/26 09:25:50;;;;;;;18.60;5.35;;;;;;;;;;5105687;28;20020;-73
2022/12/26 09:28:17;;;;;;;21.88;4.65;;;;;;;;;;5088730;28;20077;-73
2022/12/26 09:30:43;;;;;;;21.60;3.53;;;;;;;;;;5105354;28;20039;-73
2022/12/26 09:33:09;;;;;;;24.13;3.70;;;;;;;;;;5088747;28;20484;-73
2022/12/26 09:35:39;;;;;;;17.10;3.47;;;;;;;;;;5108867;28;20032;-73
2022/12/26 09:38:05;;;;;;;12.88;2.28;;;;;;;;;;5107093;28;20499;-72
2022/12/26 09:40:35;;;;;;;20.45;3.53;;;;;;;;;;5108216;28;20024;-73
2022/12/26 09:43:13;;;;;;;19.77;3.28;;;;;;;;;;5111118;28;20100;-73
2022/12/26 09:45:39;;;;;;;14.15;2.45;;;;;;;;;;5107457;28;20050;-73
2022/12/26 09:48:08;;;;;;;12.50;2.72;;;;;;;;;;5098770;28;20051;-72
2022/12/26 09:50:37;;;;;;;17.55;3.55;;;;;;;;;;5093707;28;20063;-73
2022/12/26 09:53:08;;;;;;;15.88;1.88;;;;;;;;;;5100529;28;20298;-72
2022/12/26 09:55:37;;;;;;;13.98;2.50;;;;;;;;;;5084914;28;20421;-72
2022/12/26 09:58:24;;;;;;;17.80;2.47;;;;;;;;;;5097389;28;20118;-72
2022/12/26 10:00:59;;;;;;;20.92;3.38;;;;;;;;;;5104039;28;20035;-73
2022/12/26 10:03:26;;;;;;;20.60;2.60;;;;;;;;;;5109733;28;20032;-73
2022/12/26 10:06:16;;;;;;;27.85;3.47;;;;;;;;;;5106233;28;20028;-73
2022/12/26 10:08:51;;;;;;;17.05;2.30;;;;;;;;;;5076824;28;20209;-73
2022/12/26 10:11:24;;;;;;;15.98;2.75;;;;;;;;;;5083563;28;20379;-74
2022/12/26 10:13:54;;;;;;;19.08;2.72;;;;;;;;;;5109027;28;20026;-73
2022/12/26 10:16:23;;;;;;;29.52;8.30;;;;;;;;;;5103501;28;20063;-74
2022/12/26 10:19:05;;;;;;;17.08;3.05;;;;;;;;;;5093976;28;20421;-75
2022/12/26 10:21:31;;;;;;;15.00;2.00;;;;;;;;;;5084149;28;20034;-75
2022/12/26 10:24:02;;;;;;;13.13;2.65;;;;;;;;;;5098535;28;20031;-73
2022/12/26 10:26:33;;;;;;;18.73;1.98;;;;;;;;;;5107772;28;20028;-73
2022/12/26 10:29:01;;;;;;;19.10;2.05;;;;;;;;;;5108119;28;20104;-74
2022/12/26 10:31:45;;;;;;;10.23;2.08;;;;;;;;;;5103169;28;20028;-73
2022/12/26 10:34:16;;;;;;;8.93;1.63;;;;;;;;;;5105679;28;20023;-73
2022/12/26 10:36:47;;;;;;;15.75;2.28;;;;;;;;;;5105371;28;20028;-74
2022/12/26 10:39:25;;;;;;;9.90;1.80;;;;;;;;;;5087985;28;20089;-72
2022/12/26 10:41:53;;;;;;;20.30;2.53;;;;;;;;;;5111821;28;20023;-71
2022/12/26 10:44:20;;;;;;;15.25;1.75;;;;;;;;;;5112647;28;20175;-72
2022/12/26 10:46:55;;;;;;;17.02;2.00;;;;;;;;;;5105498;28;20048;-73
2022/12/26 10:49:22;;;;;;;13.32;2.70;;;;;;;;;;5095466;28;20034;-72
2022/12/26 10:51:50;;;;;;;12.35;2.85;;;;;;;;;;5111079;28;20020;-72
2022/12/26 10:54:18;;;;;;;18.35;2.00;;;;;;;;;;5107514;28;20044;-74
2022/12/26 10:56:45;;;;;;;11.07;2.67;;;;;;;;;;5098840;27;20498;-72
2022/12/26 10:59:15;;;;;;;14.15;1.80;;;;;;;;;;5108846;28;20033;-73
2022/12/26 11:01:46;;;;;;;19.85;3.40;;;;;;;;;;5079204;28;20039;-73
2022/12/26 11:04:24;;;;;;;16.73;2.05;;;;;;;;;;5105820;28;20028;-74
2022/12/26 11:06:51;;;;;;;9.63;2.90;;;;;;;;;;5097048;28;20081;-74
2022/12/26 11:09:26;;;;;;;12.07;1.63;;;;;;;;;;5103850;28;20353;-77
2022/12/26 11:11:53;;;;;;;18.27;2.03;;;;;;;;;;5100023;28;20034;-73
2022/12/26 11:14:39;;;;;;;15.65;3.15;;;;;;;;;;5110466;28;20107;-73
2022/12/26 11:17:11;;;;;;;9.90;2.60;;;;;;;;;;5109881;28;20345;-76
2022/12/26 11:19:39;;;;;;;16.25;3.38;;;;;;;;;;5108410;28;20054;-73
2022/12/26 11:22:22;;;;;;;13.27;1.92;;;;;;;;;;5107861;28;20356;-72
2022/12/26 11:25:06;;;;;;;7.20;1.40;;;;;;;;;;5110756;28;20034;-72
2022/12/26 11:27:33;;;;;;;19.73;1.70;;;;;;;;;;5095050;28;20237;-72
2022/12/26 11:30:28;;;;;;;14.18;2.47;;;;;;;;;;5113102;28;20039;-73
2022/12/26 11:33:09;;;;;;;6.82;1.85;;;;;;;;;;5073099;28;20032;-73
2022/12/26 11:35:36;;;;;;;15.00;1.70;;;;;;;;;;5109257;28;20046;-73
2022/12/26 11:38:06;;;;;;;11.75;2.25;;;;;;;;;;5103449;28;20147;-73
2022/12/26 11:40:36;;;;;;;12.95;2.53;;;;;;;;;;5079174;28;20275;-74
2022/12/26 11:43:03;;;;;;;14.95;2.75;;;;;;;;;;5098158;28;20423;-74
2022/12/26 11:45:31;;;;;;;15.68;2.33;;;;;;;;;;5098821;28;20035;-76
2022/12/26 11:47:59;;;;;;;17.48;3.42;;;;;;;;;;5094673;28;20110;-72
2022/12/26 11:50:27;;;;;;;17.27;3.38;;;;;;;;;;5109278;28;20162;-71
2022/12/26 11:53:04;;;;;;;10.65;2.47;;;;;;;;;;5114359;27;20028;-73
2022/12/26 11:55:33;;;;;;;17.15;2.30;;;;;;;;;;5111728;28;20379;-74
2022/12/26 11:58:04;;;;;;;17.58;3.28;;;;;;;;;;5102505;28;20023;-74
2022/12/26 12:00:30;;;;;;;15.47;2.30;;;;;;;;;;5110586;28;20495;-74
2022/12/26 12:02:56;;;;;;;14.20;2.47;;;;;;;;;;5110054;28;20012;-74
2022/12/26 12:05:34;;;;;;;19.00;2.75;;;;;;;;;;5107862;28;20091;-74
2022/12/26 12:08:00;;;;;;;17.13;2.30;;;;;;;;;;5109927;28;20039;-74
2022/12/26 12:10:47;;;;;;;20.83;2.63;;;;;;;;;;5112285;28;20072;-74
2022/12/26 12:13:22;;;;;;;13.77;2.88;;;;;;;;;;5093728;28;20027;-73
2022/12/26 12:16:07;;;;;;;16.05;3.28;;;;;;;;;;5109607;28;20664;-71
2022/12/26 12:18:51;;;;;;;15.23;2.63;;;;;;;;;;5105184;28;20598;-74
2022/12/26 12:21:29;;;;;;;22.60;3.55;;;;;;;;;;5102139;28;20548;-73
2022/12/26 12:24:07;;;;;;;14.43;3.45;;;;;;;;;;5111510;28;20382;-73
2022/12/26 12:26:37;;;;;;;15.70;2.72;;;;;;;;;;5110388;28;20031;-73
2022/12/26 12:29:22;;;;;;;19.73;2.72;;;;;;;;;;5100563;28;20345;-73
2022/12/26 12:31:51;;;;;;;13.38;2.47;;;;;;;;;;5104791;28;20035;-73
2022/12/26 12:34:32;;;;;;;13.90;2.70;;;;;;;;;;5111479;28;20020;-73
2022/12/26 12:37:15;;;;;;;11.52;1.98;;;;;;;;;;5093487;28;20114;-72
2022/12/26 12:39:59;;;;;;;12.10;2.83;;;;;;;;;;5111683;28;20490;-72
2022/12/26 12:42:31;;;;;;;10.98;1.63;;;;;;;;;;5114082;27;20054;-75
2022/12/26 12:45:09;;;;;;;16.25;2.20;;;;;;;;;;5132117;27;20102;-72
2022/12/26 12:47:53;;;;;;;14.43;2.40;;;;;;;;;;5092651;28;20040;-71
2022/12/26 12:50:25;;;;;;;23.33;2.80;;;;;;;;;;5111126;28;20131;-74
2022/12/26 12:52:54;;;;;;;17.33;2.40;;;;;;;;;;5109260;28;20032;-71
2022/12/26 12:55:47;;;;;;;24.10;2.92;;;;;;;;;;5110957;28;20350;-72
2022/12/26 12:58:22;;;;;;;21.58;2.20;;;;;;;;;;5075834;28;20048;-71
2022/12/26 13:00:57;;;;;;;20.20;2.88;;;;;;;;;;5096998;28;20024;-71
2022/12/26 13:03:33;;;;;;;14.10;2.38;;;;;;;;;;5109326;28;20119;-72
2022/12/26 13:06:02;;;;;;;11.88;2.45;;;;;;;;;;5088086;28;20150;-70
2022/12/26 13:08:28;;;;;;;16.70;2.33;;;;;;;;;;5091039;28;20042;-73
2022/12/26 13:10:57;;;;;;;20.63;3.28;;;;;;;;;;5102405;28;20027;-73
2022/12/26 13:13:33;;;;;;;20.55;5.20;;;;;;;;;;5101018;28;20036;-73
2022/12/26 13:16:02;;;;;;;16.17;3.15;;;;;;;;;;5102851;28;20019;-73
2022/12/26 13:18:33;;;;;;;12.40;2.67;;;;;;;;;;5095535;28;20052;-73
2022/12/26 13:21:03;;;;;;;15.50;2.33;;;;;;;;;;5079999;28;20044;-74
2022/12/26 13:26:16;;;;;;;17.58;1.88;;;;;;;;;;5099171;28;20054;-72
2022/12/26 13:28:48;;;;;;;16.52;2.67;;;;;;;;;;5107189;28;23202;-73
2022/12/26 13:31:14;;;;;;;16.95;3.30;;;;;;;;;;5103086;28;20116;-73
2022/12/26 13:33:42;;;;;;;15.23;2.88;;;;;;;;;;5090439;28;20503;-72
2022/12/26 13:36:08;;;;;;;16.40;3.05;;;;;;;;;;5104763;28;20030;-73
2022/12/26 13:38:53;;;;;;;14.43;2.28;;;;;;;;;;5092375;28;20036;-73
2022/12/26 13:44:05;;;;;;;14.02;2.58;;;;;;;;;;5106560;28;20500;-75
2022/12/26 13:46:34;;;;;;;15.43;2.83;;;;;;;;;;5085061;28;20889;-74
2022/12/26 13:49:00;;;;;;;17.27;2.55;;;;;;;;;;5106107;28;20054;-75
2022/12/26 13:51:45;;;;;;;18.40;2.88;;;;;;;;;;5102357;28;20027;-74
2022/12/26 13:54:12;;;;;;;22.67;6.70;;;;;;;;;;5100295;28;20039;-73
2022/12/26 13:56:41;;;;;;;17.00;3.63;;;;;;;;;;5080028;28;20036;-77
2022/12/26 13:59:07;;;;;;;13.35;2.50;;;;;;;;;;5101020;28;20098;-76
2022/12/26 14:01:33;;;;;;;16.23;2.55;;;;;;;;;;5097334;28;20487;-74
2022/12/26 14:03:59;;;;;;;17.80;3.75;;;;;;;;;;5103701;28;20142;-74
2022/12/26 14:06:25;;;;;;;13.95;2.08;;;;;;;;;;5103665;28;20042;-74
2022/12/26 14:08:51;;;;;;;12.90;2.10;;;;;;;;;;5102742;28;20027;-74
2022/12/26 14:11:35;;;;;;;17.98;3.38;;;;;;;;;;5103580;28;20306;-73
2022/12/26 14:14:19;;;;;;;18.90;3.03;;;;;;;;;;5104151;28;20058;-74
2022/12/26 14:17:04;;;;;;;18.02;3.15;;;;;;;;;;5104021;28;20047;-74
2022/12/26 14:19:39;;;;;;;19.95;3.60;;;;;;;;;;5105608;28;20479;-77
2022/12/26 14:22:11;;;;;;;19.38;2.47;;;;;;;;;;5107921;28;20149;-74
2022/12/26 14:24:46;;;;;;;16.42;3.67;;;;;;;;;;5107542;28;20036;-74
2022/12/26 14:27:31;;;;;;;16.25;2.33;;;;;;;;;;5088312;28;20043;-73
2022/12/26 14:30:26;;;;;;;21.88;2.60;;;;;;;;;;5103310;28;20079;-73
2022/12/26 14:33:01;;;;;;;17.67;3.33;;;;;;;;;;4995430;28;20049;-72
2022/12/26 14:35:30;;;;;;;19.15;3.85;;;;;;;;;;5081555;28;20016;-74
2022/12/26 14:38:09;;;;;;;22.30;3.17;;;;;;;;;;5102657;28;20036;-73
2022/12/26 14:40:36;;;;;;;17.75;3.35;;;;;;;;;;5100877;28;20484;-74
2022/12/26 14:43:09;;;;;;;26.60;3.95;;;;;;;;;;5106044;28;20387;-73
2022/12/26 14:45:37;;;;;;;18.33;2.47;;;;;;;;;;5101141;28;20024;-75
2022/12/26 14:48:35;;;;;;;19.00;2.42;;;;;;;;;;5105079;28;20039;-74
2022/12/26 14:51:05;;;;;;;18.88;3.10;;;;;;;;;;5102933;28;20031;-76
2022/12/26 14:53:33;;;;;;;17.13;4.00;;;;;;;;;;5098416;28;20019;-72
2022/12/26 14:56:00;;;;;;;26.65;4.55;;;;;;;;;;5087698;28;20043;-74
2022/12/26 14:58:26;;;;;;;15.52;3.35;;;;;;;;;;5079746;28;20491;-73
2022/12/26 15:00:52;;;;;;;25.52;5.65;;;;;;;;;;5112492;28;20020;-73
2022/12/26 15:03:21;;;;;;;15.45;3.88;;;;;;;;;;5067469;28;20036;-75
2022/12/26 15:05:50;;;;;;;13.38;3.38;;;;;;;;;;5101094;28;20031;-77
2022/12/26 15:08:22;;;;;;;10.40;2.83;;;;;;;;;;5097487;28;20067;-73
2022/12/26 15:11:03;;;;;;;18.30;3.00;;;;;;;;;;5100794;28;20032;-72
2022/12/26 15:13:38;;;;;;;15.20;2.40;;;;;;;;;;5099511;28;20027;-73
2022/12/26 15:16:10;;;;;;;24.15;3.72;;;;;;;;;;5099538;28;20028;-75
2022/12/26 15:18:41;;;;;;;12.30;2.08;;;;;;;;;;5101489;28;20070;-71
2022/12/26 15:21:11;;;;;;;19.05;3.92;;;;;;;;;;5105170;28;20024;-73
2022/12/26 15:23:55;;;;;;;21.88;3.67;;;;;;;;;;5102243;28;20027;-72
2022/12/26 15:26:29;;;;;;;21.52;3.80;;;;;;;;;;5080492;28;20460;-72
2022/12/26 15:28:58;;;;;;;13.68;3.13;;;;;;;;;;5085644;28;20039;-73
2022/12/26 15:31:44;;;;;;;16.38;3.45;;;;;;;;;;5103276;28;20054;-78
2022/12/26 15:34:10;;;;;;;24.60;3.25;;;;;;;;;;5086202;28;21652;-76
2022/12/26 15:36:43;;;;;;;15.95;2.80;;;;;;;;;;5103635;28;20048;-73
2022/12/26 15:39:12;;;;;;;16.80;2.65;;;;;;;;;;5076217;28;20349;-72
2022/12/26 15:41:41;;;;;;;15.63;2.45;;;;;;;;;;5094867;28;20393;-74
2022/12/26 15:44:24;;;;;;;15.63;2.38;;;;;;;;;;5091934;28;20077;-73
2022/12/26 15:46:49;;;;;;;23.35;3.00;;;;;;;;;;5109219;28;20128;-73
2022/12/26 15:49:35;;;;;;;16.15;3.70;;;;;;;;;;5093727;28;20073;-73
2022/12/26 15:52:15;;;;;;;25.95;4.70;;;;;;;;;;5112382;28;20440;-71
2022/12/26 15:55:04;;;;;;;16.77;2.00;;;;;;;;;;5090146;28;20324;-71
2022/12/26 15:57:33;;;;;;;13.85;2.40;;;;;;;;;;5056898;28;20079;-73
2022/12/26 16:00:11;;;;;;;13.05;2.28;;;;;;;;;;5104750;28;20035;-73
2022/12/26 16:02:37;;;;;;;17.45;2.60;;;;;;;;;;5095937;28;20024;-74
2022/12/26 16:05:18;;;;;;;13.02;1.80;;;;;;;;;;5112156;28;20365;-73
2022/12/26 16:07:53;;;;;;;10.85;1.70;;;;;;;;;;5112466;28;20458;-73
2022/12/26 16:10:24;;;;;;;19.05;2.50;;;;;;;;;;5105573;28;20380;-73
2022/12/26 16:13:21;;;;;;;19.27;2.30;;;;;;;;;;5105968;28;20512;-77
2022/12/26 16:15:49;;;;;;;22.33;3.85;;;;;;;;;;5096321;28;20048;-72
2022/12/26 16:18:16;;;;;;;13.55;2.20;;;;;;;;;;5112106;28;20104;-73
2022/12/26 16:23:31;;;;;;;12.00;2.20;;;;;;;;;;5106401;28;20047;-72
2022/12/26 16:25:59;;;;;;;46.55;4.35;;;;;;;;;;5108469;28;20075;-72
2022/12/26 16:28:34;;;;;;;10.65;2.10;;;;;;;;;;5106546;28;20031;-72
2022/12/26 16:31:01;;;;;;;8.15;1.85;;;;;;;;;;5086180;28;20385;-72
2022/12/26 16:33:40;;;;;;;16.98;1.83;;;;;;;;;;5109498;28;20024;-74
2022/12/26 16:36:07;;;;;;;11.77;2.47;;;;;;;;;;5110382;28;20024;-73
2022/12/26 16:38:34;;;;;;;24.77;3.90;;;;;;;;;;5092894;28;20065;-72
2022/12/26 16:41:00;;;;;;;16.80;4.18;;;;;;;;;;5106957;28;20019;-73
2022/12/26 16:43:26;;;;;;;17.48;2.40;;;;;;;;;;5108031;28;20372;-73
2022/12/26 16:45:53;;;;;;;17.65;2.83;;;;;;;;;;5092709;28;20046;-74
2022/12/26 16:48:21;;;;;;;13.52;3.03;;;;;;;;;;5108887;28;20031;-73
2022/12/26 16:50:52;;;;;;;21.77;2.95;;;;;;;;;;5093252;28;20547;-73
2022/12/26 16:53:24;;;;;;;12.75;2.58;;;;;;;;;;5111030;28;20031;-75
2022/12/26 16:56:19;;;;;;;9.20;2.10;;;;;;;;;;5109699;28;20483;-74